sensor_id;sensor_type;location;lat;lon;timestamp;pressure;altitude;pressure_sealevel;temperature;humidity
76358;BME280;65185;21.060;105.826;2023-01-15T00:01:30;101213.09;;;21.70;100.00
76358;BME280;65185;21.060;105.826;2023-01-15T00:04:00;101212.28;;;21.69;100.00
76358;BME280;65185;21.060;105.826;2023-01-15T00:06:36;101224.03;;;21.70;100.00
76358;BME280;65185;21.060;105.826;2023-01-15T00:09:04;101230.13;;;21.67;100.00
76358;BME280;65185;21.060;105.826;2023-01-15T00:11:43;101232.88;;;21.67;100.00
76358;BME280;65185;21.060;105.826;2023-01-15T00:14:13;101236.88;;;21.69;100.00
76358;BME280;65185;21.060;105.826;2023-01-15T00:16:40;101249.75;;;21.69;100.00
76358;BME280;65185;21.060;105.826;2023-01-15T00:19:09;101244.63;;;21.67;100.00
76358;BME280;65185;21.060;105.826;2023-01-15T00:21:37;101246.69;;;21.70;100.00
76358;BME280;65185;21.060;105.826;2023-01-15T00:24:13;101255.72;;;21.71;100.00
76358;BME280;65185;21.060;105.826;2023-01-15T00:27:00;101257.78;;;21.74;100.00
76358;BME280;65185;21.060;105.826;2023-01-15T00:29:46;101271.00;;;21.72;100.00
76358;BME280;65185;21.060;105.826;2023-01-15T00:32:13;101276.78;;;21.70;100.00
76358;BME280;65185;21.060;105.826;2023-01-15T00:34:40;101275.97;;;21.70;100.00
76358;BME280;65185;21.060;105.826;2023-01-15T00:37:07;101278.06;;;21.73;100.00
76358;BME280;65185;21.060;105.826;2023-01-15T00:39:34;101281.28;;;21.75;100.00
76358;BME280;65185;21.060;105.826;2023-01-15T00:42:01;101287.25;;;21.77;100.00
76358;BME280;65185;21.060;105.826;2023-01-15T00:44:28;101288.06;;;21.77;100.00
76358;BME280;65185;21.060;105.826;2023-01-15T00:46:55;101294.94;;;21.75;100.00
76358;BME280;65185;21.060;105.826;2023-01-15T00:49:21;101301.72;;;21.77;100.00
76358;BME280;65185;21.060;105.826;2023-01-15T00:51:48;101303.34;;;21.78;100.00
76358;BME280;65185;21.060;105.826;2023-01-15T00:54:16;101312.00;;;21.80;100.00
76358;BME280;65185;21.060;105.826;2023-01-15T00:56:43;101310.59;;;21.83;100.00
76358;BME280;65185;21.060;105.826;2023-01-15T00:59:10;101319.75;;;21.87;100.00
76358;BME280;65185;21.060;105.826;2023-01-15T01:01:38;101318.34;;;21.89;100.00
76358;BME280;65185;21.060;105.826;2023-01-15T01:04:05;101322.84;;;21.94;100.00
76358;BME280;65185;21.060;105.826;2023-01-15T01:06:32;101325.31;;;21.95;100.00
76358;BME280;65185;21.060;105.826;2023-01-15T01:08:59;101329.31;;;21.98;100.00
76358;BME280;65185;21.060;105.826;2023-01-15T01:11:26;101328.19;;;21.99;100.00
76358;BME280;65185;21.060;105.826;2023-01-15T01:13:58;101339.66;;;22.01;100.00
76358;BME280;65185;21.060;105.826;2023-01-15T01:16:30;101340.91;;;22.04;100.00
76358;BME280;65185;21.060;105.826;2023-01-15T01:18:59;101343.34;;;22.05;100.00
76358;BME280;65185;21.060;105.826;2023-01-15T01:21:29;101346.38;;;22.04;100.00
76358;BME280;65185;21.060;105.826;2023-01-15T01:23:59;101351.06;;;22.03;100.00
76358;BME280;65185;21.060;105.826;2023-01-15T01:26:30;101357.34;;;22.04;100.00
76358;BME280;65185;21.060;105.826;2023-01-15T01:28:57;101364.72;;;22.03;100.00
76358;BME280;65185;21.060;105.826;2023-01-15T01:31:24;101367.78;;;22.02;100.00
76358;BME280;65185;21.060;105.826;2023-01-15T01:33:54;101374.06;;;22.02;100.00
76358;BME280;65185;21.060;105.826;2023-01-15T01:36:35;101376.31;;;22.00;100.00
76358;BME280;65185;21.060;105.826;2023-01-15T01:39:03;101377.13;;;22.01;100.00
76358;BME280;65185;21.060;105.826;2023-01-15T01:41:31;101382.09;;;21.98;100.00
76358;BME280;65185;21.060;105.826;2023-01-15T01:44:02;101384.03;;;21.98;100.00
76358;BME280;65185;21.060;105.826;2023-01-15T01:46:32;101390.63;;;21.97;100.00
76358;BME280;65185;21.060;105.826;2023-01-15T01:49:04;101394.47;;;21.96;100.00
76358;BME280;65185;21.060;105.826;2023-01-15T01:51:46;101393.97;;;21.94;100.00
76358;BME280;65185;21.060;105.826;2023-01-15T01:54:18;101397.19;;;21.96;100.00
76358;BME280;65185;21.060;105.826;2023-01-15T01:56:48;101406.56;;;21.95;100.00
76358;BME280;65185;21.060;105.826;2023-01-15T01:59:17;101407.03;;;21.97;100.00
76358;BME280;65185;21.060;105.826;2023-01-15T02:01:46;101414.41;;;21.96;100.00
76358;BME280;65185;21.060;105.826;2023-01-15T02:04:13;101419.59;;;21.98;100.00
76358;BME280;65185;21.060;105.826;2023-01-15T02:06:42;101416.53;;;22.00;100.00
76358;BME280;65185;21.060;105.826;2023-01-15T02:09:09;101422.81;;;22.00;100.00
76358;BME280;65185;21.060;105.826;2023-01-15T02:11:36;101428.75;;;22.02;100.00
76358;BME280;65185;21.060;105.826;2023-01-15T02:14:18;101428.75;;;22.02;100.00
76358;BME280;65185;21.060;105.826;2023-01-15T02:22:40;101441.00;;;22.05;100.00
76358;BME280;65185;21.060;105.826;2023-01-15T02:27:53;101443.59;;;22.01;100.00
76358;BME280;65185;21.060;105.826;2023-01-15T02:30:40;101445.19;;;22.02;100.00
76358;BME280;65185;21.060;105.826;2023-01-15T02:33:22;101447.09;;;22.02;100.00
76358;BME280;65185;21.060;105.826;2023-01-15T02:35:59;101450.97;;;22.01;100.00
76358;BME280;65185;21.060;105.826;2023-01-15T02:38:30;101450.16;;;22.00;100.00
76358;BME280;65185;21.060;105.826;2023-01-15T02:41:00;101443.88;;;22.00;100.00
76358;BME280;65185;21.060;105.826;2023-01-15T02:43:32;101448.56;;;21.99;100.00
76358;BME280;65185;21.060;105.826;2023-01-15T02:46:01;101442.56;;;21.97;100.00
76358;BME280;65185;21.060;105.826;2023-01-15T02:48:31;101451.91;;;21.96;100.00
76358;BME280;65185;21.060;105.826;2023-01-15T02:51:09;101453.03;;;21.95;100.00
76358;BME280;65185;21.060;105.826;2023-01-15T02:53:38;101446.44;;;21.96;100.00
76358;BME280;65185;21.060;105.826;2023-01-15T02:56:09;101441.75;;;21.96;100.00
76358;BME280;65185;21.060;105.826;2023-01-15T02:58:39;101445.31;;;21.97;100.00
76358;BME280;65185;21.060;105.826;2023-01-15T03:01:28;101444.84;;;21.95;100.00
76358;BME280;65185;21.060;105.826;2023-01-15T03:04:16;101445.94;;;21.94;100.00
76358;BME280;65185;21.060;105.826;2023-01-15T03:06:57;101442.69;;;21.92;100.00
76358;BME280;65185;21.060;105.826;2023-01-15T03:09:26;101444.84;;;21.95;100.00
76358;BME280;65185;21.060;105.826;2023-01-15T03:15:15;101451.41;;;21.94;100.00
76358;BME280;65185;21.060;105.826;2023-01-15T03:18:11;101447.56;;;21.95;100.00
76358;BME280;65185;21.060;105.826;2023-01-15T03:20:44;101444.03;;;21.94;100.00
76358;BME280;65185;21.060;105.826;2023-01-15T03:23:15;101448.03;;;21.97;100.00
76358;BME280;65185;21.060;105.826;2023-01-15T03:25:47;101440.34;;;21.99;100.00
76358;BME280;65185;21.060;105.826;2023-01-15T03:28:18;101442.28;;;21.98;100.00
76358;BME280;65185;21.060;105.826;2023-01-15T03:30:47;101449.50;;;21.94;100.00
76358;BME280;65185;21.060;105.826;2023-01-15T03:33:14;101443.81;;;21.91;100.00
76358;BME280;65185;21.060;105.826;2023-01-15T03:35:56;101443.94;;;21.86;100.00
76358;BME280;65185;21.060;105.826;2023-01-15T03:38:33;101439.91;;;21.83;100.00
76358;BME280;65185;21.060;105.826;2023-01-15T03:41:11;101444.59;;;21.83;100.00
76358;BME280;65185;21.060;105.826;2023-01-15T03:49:24;101435.72;;;21.86;100.00
76358;BME280;65185;21.060;105.826;2023-01-15T03:54:47;101434.44;;;21.83;100.00
76358;BME280;65185;21.060;105.826;2023-01-15T03:57:40;101434.75;;;21.82;100.00
76358;BME280;65185;21.060;105.826;2023-01-15T04:02:46;101430.41;;;21.81;100.00
76358;BME280;65185;21.060;105.826;2023-01-15T04:05:14;101430.72;;;21.79;100.00
76358;BME280;65185;21.060;105.826;2023-01-15T04:07:42;101424.47;;;21.79;100.00
76358;BME280;65185;21.060;105.826;2023-01-15T04:10:09;101422.84;;;21.78;100.00
76358;BME280;65185;21.060;105.826;2023-01-15T04:12:36;101416.72;;;21.81;100.00
76358;BME280;65185;21.060;105.826;2023-01-15T04:15:03;101417.22;;;21.83;100.00
76358;BME280;65185;21.060;105.826;2023-01-15T04:17:30;101411.63;;;21.88;100.00
76358;BME280;65185;21.060;105.826;2023-01-15T04:19:57;101406.31;;;21.91;100.00
76358;BME280;65185;21.060;105.826;2023-01-15T04:22:24;101412.03;;;21.95;100.00
76358;BME280;65185;21.060;105.826;2023-01-15T04:24:50;101408.94;;;21.96;100.00
76358;BME280;65185;21.060;105.826;2023-01-15T04:27:19;101401.25;;;21.98;100.00
76358;BME280;65185;21.060;105.826;2023-01-15T04:29:56;101392.72;;;22.00;100.00
76358;BME280;65185;21.060;105.826;2023-01-15T04:32:23;101391.28;;;22.03;100.00
76358;BME280;65185;21.060;105.826;2023-01-15T04:34:49;101391.47;;;22.06;100.00
76358;BME280;65185;21.060;105.826;2023-01-15T04:37:16;101389.69;;;22.10;100.00
76358;BME280;65185;21.060;105.826;2023-01-15T04:39:43;101383.59;;;22.13;100.00
76358;BME280;65185;21.060;105.826;2023-01-15T04:42:13;101379.25;;;22.12;100.00
76358;BME280;65185;21.060;105.826;2023-01-15T04:44:58;101369.44;;;22.11;100.00
76358;BME280;65185;21.060;105.826;2023-01-15T04:47:25;101360.41;;;22.11;100.00
76358;BME280;65185;21.060;105.826;2023-01-15T04:49:55;101357.38;;;22.12;100.00
76358;BME280;65185;21.060;105.826;2023-01-15T04:52:22;101355.41;;;22.13;100.00
76358;BME280;65185;21.060;105.826;2023-01-15T04:54:48;101351.25;;;22.15;100.00
76358;BME280;65185;21.060;105.826;2023-01-15T04:57:15;101346.59;;;22.16;100.00
76358;BME280;65185;21.060;105.826;2023-01-15T04:59:45;101340.66;;;22.22;100.00
76358;BME280;65185;21.060;105.826;2023-01-15T05:02:11;101338.56;;;22.28;100.00
76358;BME280;65185;21.060;105.826;2023-01-15T05:04:38;101338.38;;;22.24;100.00
76358;BME280;65185;21.060;105.826;2023-01-15T05:07:05;101343.53;;;22.26;100.00
76358;BME280;65185;21.060;105.826;2023-01-15T05:09:32;101333.09;;;22.28;100.00
76358;BME280;65185;21.060;105.826;2023-01-15T05:12:00;101336.31;;;22.30;100.00
76358;BME280;65185;21.060;105.826;2023-01-15T05:14:26;101322.81;;;22.33;100.00
76358;BME280;65185;21.060;105.826;2023-01-15T05:16:53;101328.91;;;22.30;100.00
76358;BME280;65185;21.060;105.826;2023-01-15T05:19:21;101323.59;;;22.25;100.00
76358;BME280;65185;21.060;105.826;2023-01-15T05:21:48;101323.25;;;22.18;100.00
76358;BME280;65185;21.060;105.826;2023-01-15T05:24:17;101318.41;;;22.15;100.00
76358;BME280;65185;21.060;105.826;2023-01-15T05:26:44;101318.91;;;22.17;100.00
76358;BME280;65185;21.060;105.826;2023-01-15T05:29:12;101318.91;;;22.17;100.00
76358;BME280;65185;21.060;105.826;2023-01-15T05:31:38;101309.09;;;22.16;100.00
76358;BME280;65185;21.060;105.826;2023-01-15T05:34:08;101308.13;;;22.12;100.00
76358;BME280;65185;21.060;105.826;2023-01-15T05:36:36;101308.28;;;22.24;100.00
76358;BME280;65185;21.060;105.826;2023-01-15T05:39:03;101289.94;;;22.25;100.00
76358;BME280;65185;21.060;105.826;2023-01-15T05:41:30;101285.13;;;22.22;100.00
76358;BME280;65185;21.060;105.826;2023-01-15T05:44:21;101281.75;;;22.16;100.00
76358;BME280;65185;21.060;105.826;2023-01-15T05:46:51;101281.56;;;22.21;100.00
76358;BME280;65185;21.060;105.826;2023-01-15T05:49:21;101280.63;;;22.17;100.00
76358;BME280;65185;21.060;105.826;2023-01-15T05:51:55;101270.59;;;22.13;100.00
76358;BME280;65185;21.060;105.826;2023-01-15T05:54:27;101266.75;;;22.14;100.00
76358;BME280;65185;21.060;105.826;2023-01-15T05:56:54;101260.31;;;22.10;100.00
76358;BME280;65185;21.060;105.826;2023-01-15T05:59:24;101263.06;;;22.18;100.00
76358;BME280;65185;21.060;105.826;2023-01-15T06:01:52;101253.91;;;22.23;100.00
76358;BME280;65185;21.060;105.826;2023-01-15T06:04:20;101252.91;;;22.36;100.00
76358;BME280;65185;21.060;105.826;2023-01-15T06:06:48;101247.44;;;22.36;100.00
76358;BME280;65185;21.060;105.826;2023-01-15T06:09:15;101251.31;;;22.35;99.08
76358;BME280;65185;21.060;105.826;2023-01-15T06:11:42;101242.47;;;22.38;98.88
76358;BME280;65185;21.060;105.826;2023-01-15T06:14:12;101246.63;;;22.35;100.00
76358;BME280;65185;21.060;105.826;2023-01-15T06:16:42;101241.16;;;22.35;99.72
76358;BME280;65185;21.060;105.826;2023-01-15T06:19:11;101235.69;;;22.35;99.19
76358;BME280;65185;21.060;105.826;2023-01-15T06:21:41;101225.72;;;22.39;100.00
76358;BME280;65185;21.060;105.826;2023-01-15T06:24:09;101226.38;;;22.36;100.00
76358;BME280;65185;21.060;105.826;2023-01-15T06:26:37;101233.28;;;22.51;97.07
76358;BME280;65185;21.060;105.826;2023-01-15T06:29:08;101229.56;;;22.47;95.75
76358;BME280;65185;21.060;105.826;2023-01-15T06:31:35;101225.41;;;22.50;94.65
76358;BME280;65185;21.060;105.826;2023-01-15T06:34:02;101221.53;;;22.42;95.72
76358;BME280;65185;21.060;105.826;2023-01-15T06:36:32;101221.56;;;22.33;95.64
76358;BME280;65185;21.060;105.826;2023-01-15T06:38:59;101223.00;;;22.39;94.19
76358;BME280;65185;21.060;105.826;2023-01-15T06:41:26;101217.81;;;22.47;91.24
76358;BME280;65185;21.060;105.826;2023-01-15T06:44:16;101211.72;;;22.41;92.24
76358;BME280;65185;21.060;105.826;2023-01-15T06:47:10;101211.88;;;22.45;91.66
76358;BME280;65185;21.060;105.826;2023-01-15T06:49:55;101208.97;;;22.41;93.08
76358;BME280;65185;21.060;105.826;2023-01-15T06:52:27;101208.50;;;22.39;91.38
76358;BME280;65185;21.060;105.826;2023-01-15T06:54:55;101212.22;;;22.34;93.53
76358;BME280;65185;21.060;105.826;2023-01-15T06:57:22;101212.22;;;22.26;94.77
76358;BME280;65185;21.060;105.826;2023-01-15T06:59:50;101211.56;;;22.20;93.30
76358;BME280;65185;21.060;105.826;2023-01-15T07:02:18;101218.97;;;22.11;93.97
76358;BME280;65185;21.060;105.826;2023-01-15T07:04:46;101210.13;;;22.14;92.87
76358;BME280;65185;21.060;105.826;2023-01-15T07:07:15;101209.47;;;22.09;93.68
76358;BME280;65185;21.060;105.826;2023-01-15T07:09:43;101206.25;;;22.07;92.42
76358;BME280;65185;21.060;105.826;2023-01-15T07:12:10;101212.06;;;22.05;90.72
76358;BME280;65185;21.060;105.826;2023-01-15T07:14:37;101213.16;;;22.04;90.25
76358;BME280;65185;21.060;105.826;2023-01-15T07:17:04;101204.94;;;22.13;88.25
76358;BME280;65185;21.060;105.826;2023-01-15T07:19:31;101215.75;;;22.01;89.41
76358;BME280;65185;21.060;105.826;2023-01-15T07:21:58;101212.84;;;21.97;90.33
76358;BME280;65185;21.060;105.826;2023-01-15T07:24:25;101218.31;;;21.97;88.90
76358;BME280;65185;21.060;105.826;2023-01-15T07:26:51;101218.44;;;21.83;89.87
76358;BME280;65185;21.060;105.826;2023-01-15T07:29:18;101211.00;;;21.75;89.51
76358;BME280;65185;21.060;105.826;2023-01-15T07:31:46;101206.84;;;21.78;89.37
76358;BME280;65185;21.060;105.826;2023-01-15T07:34:12;101209.72;;;21.81;87.48
76358;BME280;65185;21.060;105.826;2023-01-15T07:36:40;101210.19;;;21.75;86.82
76358;BME280;65185;21.060;105.826;2023-01-15T07:39:08;101197.97;;;21.81;87.31
76358;BME280;65185;21.060;105.826;2023-01-15T07:41:36;101199.75;;;21.85;89.07
76358;BME280;65185;21.060;105.826;2023-01-15T07:44:21;101200.56;;;21.86;88.46
76358;BME280;65185;21.060;105.826;2023-01-15T07:47:22;101206.19;;;21.81;87.36
76358;BME280;65185;21.060;105.826;2023-01-15T07:50:20;101203.59;;;21.76;84.91
76358;BME280;65185;21.060;105.826;2023-01-15T07:52:48;101215.19;;;21.81;86.61
76358;BME280;65185;21.060;105.826;2023-01-15T07:55:21;101207.81;;;21.73;85.80
76358;BME280;65185;21.060;105.826;2023-01-15T07:57:49;101206.34;;;21.76;84.15
76358;BME280;65185;21.060;105.826;2023-01-15T08:00:21;101219.34;;;21.62;84.28
76358;BME280;65185;21.060;105.826;2023-01-15T08:02:48;101217.91;;;21.64;84.41
76358;BME280;65185;21.060;105.826;2023-01-15T08:05:16;101221.44;;;21.56;83.98
76358;BME280;65185;21.060;105.826;2023-01-15T08:07:43;101211.41;;;21.51;84.80
76358;BME280;65185;21.060;105.826;2023-01-15T08:10:12;101222.84;;;21.53;84.28
76358;BME280;65185;21.060;105.826;2023-01-15T08:12:39;101218.34;;;21.49;84.58
76358;BME280;65185;21.060;105.826;2023-01-15T08:15:25;101218.50;;;21.52;83.30
76358;BME280;65185;21.060;105.826;2023-01-15T08:17:52;101225.22;;;21.46;84.98
76358;BME280;65185;21.060;105.826;2023-01-15T08:20:23;101228.25;;;21.36;84.00
76358;BME280;65185;21.060;105.826;2023-01-15T08:22:51;101237.09;;;21.33;85.14
76358;BME280;65185;21.060;105.826;2023-01-15T08:25:21;101236.47;;;21.36;85.60
76358;BME280;65185;21.060;105.826;2023-01-15T08:27:52;101238.22;;;21.32;85.48
76358;BME280;65185;21.060;105.826;2023-01-15T08:30:21;101243.00;;;21.27;85.54
76358;BME280;65185;21.060;105.826;2023-01-15T08:32:49;101238.50;;;21.22;83.53
76358;BME280;65185;21.060;105.826;2023-01-15T08:35:19;101236.78;;;21.12;83.74
76358;BME280;65185;21.060;105.826;2023-01-15T08:37:56;101237.13;;;21.11;83.82
76358;BME280;65185;21.060;105.826;2023-01-15T08:40:23;101254.81;;;21.13;84.08
76358;BME280;65185;21.060;105.826;2023-01-15T08:42:50;101261.97;;;21.23;80.68
76358;BME280;65185;21.060;105.826;2023-01-15T08:45:17;101269.00;;;21.15;80.61
76358;BME280;65185;21.060;105.826;2023-01-15T08:47:43;101270.03;;;21.06;79.07
76358;BME280;65185;21.060;105.826;2023-01-15T08:50:10;101271.16;;;21.05;79.69
76358;BME280;65185;21.060;105.826;2023-01-15T08:52:37;101279.34;;;21.05;81.23
76358;BME280;65185;21.060;105.826;2023-01-15T08:55:05;101276.31;;;21.06;82.06
76358;BME280;65185;21.060;105.826;2023-01-15T08:57:33;101285.56;;;20.97;79.89
76358;BME280;65185;21.060;105.826;2023-01-15T09:00:07;101300.22;;;21.01;79.15
76358;BME280;65185;21.060;105.826;2023-01-15T09:02:41;101305.16;;;20.99;79.68
76358;BME280;65185;21.060;105.826;2023-01-15T09:05:08;101306.28;;;20.98;80.07
76358;BME280;65185;21.060;105.826;2023-01-15T09:07:35;101294.97;;;20.91;81.27
76358;BME280;65185;21.060;105.826;2023-01-15T09:10:02;101304.66;;;20.74;81.88
76358;BME280;65185;21.060;105.826;2023-01-15T09:12:29;101304.78;;;20.69;82.57
76358;BME280;65185;21.060;105.826;2023-01-15T09:15:12;101317.84;;;20.72;82.88
76358;BME280;65185;21.060;105.826;2023-01-15T09:17:38;101308.03;;;20.71;82.99
76358;BME280;65185;21.060;105.826;2023-01-15T09:20:10;101313.22;;;20.59;81.76
76358;BME280;65185;21.060;105.826;2023-01-15T09:22:37;101328.59;;;20.55;80.95
76358;BME280;65185;21.060;105.826;2023-01-15T09:25:05;101327.09;;;20.49;80.68
76358;BME280;65185;21.060;105.826;2023-01-15T09:27:32;101330.94;;;20.48;81.58
76358;BME280;65185;21.060;105.826;2023-01-15T09:29:59;101340.66;;;20.41;80.72
76358;BME280;65185;21.060;105.826;2023-01-15T09:32:26;101333.69;;;20.48;83.04
76358;BME280;65185;21.060;105.826;2023-01-15T09:34:53;101346.91;;;20.41;82.48
76358;BME280;65185;21.060;105.826;2023-01-15T09:37:20;101354.63;;;20.39;82.88
76358;BME280;65185;21.060;105.826;2023-01-15T09:39:47;101361.06;;;20.43;83.17
76358;BME280;65185;21.060;105.826;2023-01-15T09:52:57;101379.97;;;20.26;81.63
76358;BME280;65185;21.060;105.826;2023-01-15T09:55:32;101387.94;;;20.22;80.39
76358;BME280;65185;21.060;105.826;2023-01-15T09:58:04;101388.75;;;20.23;82.13
76358;BME280;65185;21.060;105.826;2023-01-15T10:00:40;101398.75;;;20.14;80.20
76358;BME280;65185;21.060;105.826;2023-01-15T10:08:39;101407.03;;;20.09;81.10
76358;BME280;65185;21.060;105.826;2023-01-15T10:16:09;101423.31;;;20.00;81.12
76358;BME280;65185;21.060;105.826;2023-01-15T10:18:36;101429.34;;;19.97;81.98
76358;BME280;65185;21.060;105.826;2023-01-15T10:21:16;101435.59;;;19.98;80.75
76358;BME280;65185;21.060;105.826;2023-01-15T10:26:52;101449.13;;;19.89;81.28
76358;BME280;65185;21.060;105.826;2023-01-15T10:29:31;101452.16;;;19.87;81.23
76358;BME280;65185;21.060;105.826;2023-01-15T10:35:04;101466.88;;;19.86;81.25
76358;BME280;65185;21.060;105.826;2023-01-15T10:45:50;101485.63;;;19.74;80.59
76358;BME280;65185;21.060;105.826;2023-01-15T10:50:53;101506.84;;;19.77;81.45
76358;BME280;65185;21.060;105.826;2023-01-15T10:56:33;101515.25;;;19.62;78.01
76358;BME280;65185;21.060;105.826;2023-01-15T11:01:34;101524.69;;;19.51;79.06
76358;BME280;65185;21.060;105.826;2023-01-15T11:04:01;101526.31;;;19.52;79.15
76358;BME280;65185;21.060;105.826;2023-01-15T11:06:30;101526.69;;;19.45;79.29
76358;BME280;65185;21.060;105.826;2023-01-15T11:08:58;101537.59;;;19.45;81.18
76358;BME280;65185;21.060;105.826;2023-01-15T11:14:37;101548.25;;;19.42;81.22
76358;BME280;65185;21.060;105.826;2023-01-15T11:17:44;101549.59;;;19.44;81.12
76358;BME280;65185;21.060;105.826;2023-01-15T11:20:51;101553.94;;;19.45;79.76
76358;BME280;65185;21.060;105.826;2023-01-15T11:23:20;101563.50;;;19.43;80.39
76358;BME280;65185;21.060;105.826;2023-01-15T11:25:54;101576.88;;;19.39;79.97
76358;BME280;65185;21.060;105.826;2023-01-15T11:28:37;101572.25;;;19.40;79.04
76358;BME280;65185;21.060;105.826;2023-01-15T11:31:09;101583.75;;;19.37;78.29
76358;BME280;65185;21.060;105.826;2023-01-15T11:33:37;101599.25;;;19.36;78.32
76358;BME280;65185;21.060;105.826;2023-01-15T11:36:20;101591.97;;;19.32;78.09
76358;BME280;65185;21.060;105.826;2023-01-15T11:38:49;101604.56;;;19.28;78.47
76358;BME280;65185;21.060;105.826;2023-01-15T11:41:29;101615.00;;;19.21;77.41
76358;BME280;65185;21.060;105.826;2023-01-15T11:44:19;101625.75;;;19.31;77.25
76358;BME280;65185;21.060;105.826;2023-01-15T11:47:17;101637.47;;;19.31;79.19
76358;BME280;65185;21.060;105.826;2023-01-15T11:50:17;101642.03;;;19.36;77.67
76358;BME280;65185;21.060;105.826;2023-01-15T11:53:02;101647.34;;;19.27;78.08
76358;BME280;65185;21.060;105.826;2023-01-15T11:55:30;101648.44;;;19.26;77.79
76358;BME280;65185;21.060;105.826;2023-01-15T11:57:57;101653.88;;;19.26;77.20
76358;BME280;65185;21.060;105.826;2023-01-15T12:02:57;101663.38;;;19.29;79.42
76358;BME280;65185;21.060;105.826;2023-01-15T12:05:29;101665.53;;;19.32;80.63
76358;BME280;65185;21.060;105.826;2023-01-15T12:08:01;101677.69;;;19.16;81.68
76358;BME280;65185;21.060;105.826;2023-01-15T12:10:54;101689.47;;;19.11;83.46
76358;BME280;65185;21.060;105.826;2023-01-15T12:13:43;101697.38;;;19.07;82.59
76358;BME280;65185;21.060;105.826;2023-01-15T12:16:27;101701.44;;;19.10;83.56
76358;BME280;65185;21.060;105.826;2023-01-15T12:27:22;101707.22;;;19.03;80.26
76358;BME280;65185;21.060;105.826;2023-01-15T12:32:43;101705.66;;;18.97;82.11
76358;BME280;65185;21.060;105.826;2023-01-15T12:35:37;101707.84;;;18.95;82.63
76358;BME280;65185;21.060;105.826;2023-01-15T12:38:23;101717.94;;;18.95;81.77
76358;BME280;65185;21.060;105.826;2023-01-15T12:41:05;101725.81;;;18.96;81.25
76358;BME280;65185;21.060;105.826;2023-01-15T12:43:33;101734.78;;;18.97;82.27
76358;BME280;65185;21.060;105.826;2023-01-15T12:46:29;101752.81;;;18.93;80.17
76358;BME280;65185;21.060;105.826;2023-01-15T12:49:48;101755.56;;;18.88;79.88
76358;BME280;65185;21.060;105.826;2023-01-15T12:52:23;101761.06;;;18.83;78.48
76358;BME280;65185;21.060;105.826;2023-01-15T12:55:13;101775.19;;;18.85;79.71
76358;BME280;65185;21.060;105.826;2023-01-15T12:57:47;101769.84;;;18.75;78.11
76358;BME280;65185;21.060;105.826;2023-01-15T13:00:49;101774.41;;;18.79;77.90
76358;BME280;65185;21.060;105.826;2023-01-15T13:03:29;101774.94;;;18.81;78.77
76358;BME280;65185;21.060;105.826;2023-01-15T13:06:03;101780.75;;;18.69;78.38
76358;BME280;65185;21.060;105.826;2023-01-15T13:08:56;101780.44;;;18.76;78.36
76358;BME280;65185;21.060;105.826;2023-01-15T13:11:26;101784.25;;;18.75;77.76
76358;BME280;65185;21.060;105.826;2023-01-15T13:13:53;101788.06;;;18.74;79.21
76358;BME280;65185;21.060;105.826;2023-01-15T13:21:40;101808.97;;;18.79;77.18
76358;BME280;65185;21.060;105.826;2023-01-15T13:24:31;101809.84;;;18.74;77.55
76358;BME280;65185;21.060;105.826;2023-01-15T13:27:09;101814.78;;;18.67;78.39
76358;BME280;65185;21.060;105.826;2023-01-15T13:32:40;101819.69;;;18.70;79.27
76358;BME280;65185;21.060;105.826;2023-01-15T13:37:43;101828.84;;;18.79;76.27
76358;BME280;65185;21.060;105.826;2023-01-15T13:40:26;101837.66;;;18.66;77.41
76358;BME280;65185;21.060;105.826;2023-01-15T13:42:55;101835.50;;;18.63;78.04
76358;BME280;65185;21.060;105.826;2023-01-15T13:48:33;101850.00;;;18.48;79.03
76358;BME280;65185;21.060;105.826;2023-01-15T13:51:02;101852.13;;;18.51;78.61
76358;BME280;65185;21.060;105.826;2023-01-15T13:53:36;101852.94;;;18.52;76.48
76358;BME280;65185;21.060;105.826;2023-01-15T13:56:09;101848.09;;;18.49;77.46
76358;BME280;65185;21.060;105.826;2023-01-15T13:58:50;101852.97;;;18.47;77.95
76358;BME280;65185;21.060;105.826;2023-01-15T14:09:03;101872.31;;;18.45;74.28
76358;BME280;65185;21.060;105.826;2023-01-15T14:16:57;101868.81;;;18.35;75.86
76358;BME280;65185;21.060;105.826;2023-01-15T14:22:39;101876.69;;;18.41;77.36
76358;BME280;65185;21.060;105.826;2023-01-15T14:33:31;101889.53;;;18.25;73.27
76358;BME280;65185;21.060;105.826;2023-01-15T14:36:18;101904.47;;;18.28;74.56
76358;BME280;65185;21.060;105.826;2023-01-15T14:38:55;101907.97;;;18.34;74.42
76358;BME280;65185;21.060;105.826;2023-01-15T14:41:33;101916.94;;;18.39;75.20
76358;BME280;65185;21.060;105.826;2023-01-15T14:44:29;101908.81;;;18.34;73.21
76358;BME280;65185;21.060;105.826;2023-01-15T14:47:02;101913.44;;;18.34;73.73
76358;BME280;65185;21.060;105.826;2023-01-15T14:49:43;101913.19;;;18.30;73.66
76358;BME280;65185;21.060;105.826;2023-01-15T14:52:23;101915.59;;;18.37;74.55
76358;BME280;65185;21.060;105.826;2023-01-15T14:54:50;101915.34;;;18.33;74.18